METAR Data
IDs: Format: Raw Decoded Include TAF

Data at: 1553 UTC 03 Dec 2021

ESIB 031520Z 10007KT CAVOK M06/M07 Q0999